Time;durP1;ratioP1;P1;durP2;ratioP2;P2;SDS_P1;SDS_P2;PMS_P1;PMS_P2;Temp;Humidity;BMP_temperature;BMP_pressure;BME280_temperature;BME280_humidity;BME280_pressure;Samples;Min_cycle;Max_cycle;Signal;HPM_P1;HPM_P2
2023/08/24 00:02:02;;;;;;;7.07;6.07;;;;;;;24.53;53.01;98916.63;6974154;28;20569;-84
2023/08/24 00:05:24;;;;;;;6.87;5.17;;;;;;;24.70;52.72;98911.50;6973566;28;20887;-84
2023/08/24 00:08:45;;;;;;;6.60;5.70;;;;;;;24.65;53.41;98919.88;6978840;28;20232;-84
2023/08/24 00:12:09;;;;;;;6.60;5.90;;;;;;;24.60;53.09;98914.41;6992996;28;20228;-84
2023/08/24 00:15:31;;;;;;;5.90;5.20;;;;;;;24.55;53.54;98904.19;6980284;28;20609;-85
2023/08/24 00:18:53;;;;;;;7.47;5.60;;;;;;;24.73;52.67;98917.25;6974853;28;20583;-84
2023/08/24 00:22:14;;;;;;;6.57;6.07;;;;;;;23.96;55.09;98928.47;6974237;28;20373;-85
2023/08/24 00:25:36;;;;;;;8.77;5.93;;;;;;;24.01;54.93;98900.09;6974494;28;20290;-83
2023/08/24 00:28:59;;;;;;;7.93;5.00;;;;;;;24.69;52.98;98916.22;6972492;28;20249;-84
2023/08/24 00:32:20;;;;;;;9.00;5.77;;;;;;;24.13;53.89;98914.31;6974405;28;20224;-84
2023/08/24 00:35:42;;;;;;;7.33;6.57;;;;;;;23.98;54.68;98907.00;6973509;28;20341;-85
2023/08/24 00:39:04;;;;;;;7.10;5.43;;;;;;;24.07;55.12;98896.97;6974715;28;20264;-84
2023/08/24 00:42:26;;;;;;;7.37;6.40;;;;;;;24.10;54.87;98899.16;6974842;28;20336;-84
2023/08/24 00:45:48;;;;;;;6.17;5.67;;;;;;;24.15;54.35;98882.59;6946504;28;20670;-84
2023/08/24 00:49:10;;;;;;;8.90;5.53;;;;;;;24.40;53.27;98884.25;6946543;28;20350;-84
2023/08/24 00:52:32;;;;;;;10.33;5.87;;;;;;;24.16;54.59;98887.00;6977795;28;20259;-84
2023/08/24 00:55:54;;;;;;;10.90;5.93;;;;;;;24.05;54.74;98874.41;6995683;28;20266;-84
2023/08/24 00:59:15;;;;;;;13.10;6.40;;;;;;;23.83;54.88;98876.78;6947902;28;20291;-85
2023/08/24 01:02:39;;;;;;;6.50;5.90;;;;;;;23.94;54.81;98875.63;6954301;28;20369;-84
2023/08/24 01:06:00;;;;;;;7.27;5.70;;;;;;;23.86;54.87;98859.69;6973623;28;20222;-84
2023/08/24 01:09:22;;;;;;;6.27;5.50;;;;;;;24.29;53.86;98871.69;6974846;28;20816;-84
2023/08/24 01:12:55;;;;;;;6.17;5.37;;;;;;;23.95;54.70;98871.75;6976286;28;20236;-82
2023/08/24 01:16:20;;;;;;;8.03;5.60;;;;;;;24.17;53.82;98860.25;6992212;28;20198;-85
2023/08/24 01:19:45;;;;;;;5.93;5.33;;;;;;;24.12;54.06;98860.31;7004281;28;20204;-84
2023/08/24 01:23:20;;;;;;;7.27;5.43;;;;;;;24.01;54.03;98843.03;7002757;28;20240;-84
2023/08/24 01:26:44;;;;;;;6.67;6.07;;;;;;;22.78;57.89;98852.69;7003666;28;20235;-83
2023/08/24 01:30:07;;;;;;;7.20;6.33;;;;;;;23.58;56.81;98863.25;7003117;28;20244;-84
2023/08/24 01:33:29;;;;;;;8.77;6.13;;;;;;;23.56;56.24;98854.47;6980123;28;20641;-84
2023/08/24 01:36:50;;;;;;;8.40;6.27;;;;;;;23.58;56.40;98854.97;6976561;28;20257;-83
2023/08/24 01:40:17;;;;;;;7.07;6.03;;;;;;;23.92;55.03;98855.81;6977289;28;20305;-85
2023/08/24 01:43:41;;;;;;;7.40;5.80;;;;;;;23.70;55.11;98838.06;6990711;28;20239;-84
2023/08/24 01:47:05;;;;;;;8.70;5.90;;;;;;;23.59;55.50;98853.06;6993645;28;20671;-83
2023/08/24 01:50:26;;;;;;;7.83;6.50;;;;;;;23.31;56.83;98864.81;6977213;28;20299;-83
2023/08/24 01:53:48;;;;;;;8.00;6.13;;;;;;;23.49;56.13;98855.88;6975837;28;20241;-83
2023/08/24 01:57:10;;;;;;;7.57;6.50;;;;;;;23.46;56.05;98857.28;6976049;28;20304;-83
2023/08/24 02:00:32;;;;;;;9.60;6.57;;;;;;;23.35;56.75;98852.94;6981220;28;20208;-83
2023/08/24 02:03:54;;;;;;;8.07;6.17;;;;;;;23.52;56.03;98856.13;7002797;28;20277;-83
2023/08/24 02:07:16;;;;;;;6.77;6.10;;;;;;;23.74;55.30;98853.75;7004000;28;20572;-81
2023/08/24 02:10:37;;;;;;;10.07;6.57;;;;;;;23.23;55.85;98827.72;6979606;28;20690;-81
2023/08/24 02:13:59;;;;;;;8.23;6.70;;;;;;;23.31;56.42;98845.56;6976445;28;20226;-81
2023/08/24 02:17:22;;;;;;;7.17;5.90;;;;;;;23.51;56.55;98859.16;6984230;28;20208;-81
2023/08/24 02:20:43;;;;;;;7.27;5.80;;;;;;;23.77;54.83;98861.41;7004987;28;20312;-81
2023/08/24 02:24:05;;;;;;;7.33;6.63;;;;;;;23.19;56.62;98859.66;7004036;28;20227;-81
2023/08/24 02:27:27;;;;;;;8.03;7.23;;;;;;;23.21;57.26;98867.63;7003177;28;20290;-81
2023/08/24 02:30:48;;;;;;;7.13;6.40;;;;;;;23.44;56.81;98866.94;7004618;28;20184;-81
2023/08/24 02:34:11;;;;;;;7.87;6.33;;;;;;;23.64;55.74;98866.75;7005108;28;20252;-81
2023/08/24 02:37:33;;;;;;;7.23;5.90;;;;;;;23.45;55.62;98863.91;7002319;28;20209;-81
2023/08/24 02:41:04;;;;;;;7.97;7.17;;;;;;;22.70;58.39;98860.72;6999374;28;20847;-82
2023/08/24 02:44:25;;;;;;;7.00;6.40;;;;;;;23.23;56.37;98838.72;6972132;28;20315;-81
2023/08/24 02:47:47;;;;;;;9.70;6.53;;;;;;;23.24;56.14;98823.84;6970931;28;20350;-81
2023/08/24 02:51:10;;;;;;;7.07;6.37;;;;;;;23.47;55.68;98847.91;6971460;28;20219;-81
2023/08/24 02:54:31;;;;;;;12.57;6.50;;;;;;;23.09;57.26;98850.63;6972244;28;20316;-81
2023/08/24 02:57:53;;;;;;;8.60;7.23;;;;;;;22.97;57.52;98858.41;6955793;28;20212;-82
2023/08/24 03:01:14;;;;;;;9.73;6.83;;;;;;;22.87;58.38;98850.19;6992111;28;20304;-81
2023/08/24 03:04:36;;;;;;;7.07;6.37;;;;;;;23.07;57.23;98836.34;6975069;28;20249;-81
2023/08/24 03:07:59;;;;;;;7.57;6.20;;;;;;;22.99;56.82;98854.25;6971871;28;20207;-81
2023/08/24 03:11:20;;;;;;;9.83;7.30;;;;;;;22.62;58.73;98845.66;6971242;28;20658;-81
2023/08/24 03:14:42;;;;;;;6.93;6.33;;;;;;;23.06;57.99;98851.22;6970500;28;20226;-81
2023/08/24 03:18:04;;;;;;;5.97;5.40;;;;;;;23.50;56.03;98838.25;6969800;28;20247;-81
2023/08/24 03:21:25;;;;;;;6.67;6.10;;;;;;;23.48;55.38;98837.72;6970107;28;20227;-81
2023/08/24 03:24:48;;;;;;;5.77;5.23;;;;;;;23.48;55.29;98832.22;6970141;28;20761;-81
2023/08/24 03:28:10;;;;;;;7.67;6.50;;;;;;;23.02;56.70;98834.41;6968137;28;20204;-82
2023/08/24 03:31:32;;;;;;;7.37;6.47;;;;;;;22.97;57.43;98842.72;6988497;28;20235;-82
2023/08/24 03:34:55;;;;;;;7.33;6.13;;;;;;;23.19;56.22;98834.91;6998180;28;20311;-81
2023/08/24 03:38:16;;;;;;;6.80;6.10;;;;;;;23.02;57.39;98845.44;6971429;28;20213;-81
2023/08/24 03:41:39;;;;;;;7.43;6.57;;;;;;;23.12;57.26;98839.88;6970067;28;20293;-82
2023/08/24 03:45:01;;;;;;;6.40;5.90;;;;;;;23.48;56.09;98829.47;6972542;28;20316;-82
2023/08/24 03:48:22;;;;;;;7.07;6.23;;;;;;;23.48;55.75;98830.28;6975845;28;20260;-81
2023/08/24 03:51:44;;;;;;;6.93;6.33;;;;;;;23.33;56.42;98815.81;6975662;28;20297;-81
2023/08/24 03:55:07;;;;;;;6.73;6.10;;;;;;;23.57;55.42;98816.72;6975310;28;20219;-81
2023/08/24 03:58:30;;;;;;;8.17;6.93;;;;;;;22.92;57.00;98808.91;6975231;28;20216;-81
2023/08/24 04:01:51;;;;;;;7.90;6.40;;;;;;;22.93;58.20;98791.31;6975651;28;20229;-81
2023/08/24 04:05:13;;;;;;;8.30;6.70;;;;;;;22.92;57.76;98789.66;6976097;28;20268;-81
2023/08/24 04:08:34;;;;;;;7.30;6.57;;;;;;;22.84;58.08;98782.03;6975878;28;20217;-81
2023/08/24 04:11:56;;;;;;;7.60;6.80;;;;;;;22.83;58.45;98794.16;6976404;28;20216;-82
2023/08/24 04:15:19;;;;;;;9.03;6.60;;;;;;;23.15;58.17;98789.78;6976120;28;20263;-81
2023/08/24 04:18:41;;;;;;;6.43;5.77;;;;;;;23.45;56.80;98789.59;6976489;28;20207;-81
2023/08/24 04:22:02;;;;;;;6.53;5.90;;;;;;;23.39;57.09;98782.47;6976266;28;20234;-81
2023/08/24 04:25:24;;;;;;;7.10;6.40;;;;;;;23.20;57.00;98756.75;6983385;28;20270;-81
2023/08/24 04:28:45;;;;;;;7.30;6.60;;;;;;;23.49;56.84;98784.31;7002658;28;20236;-81
2023/08/24 04:32:09;;;;;;;8.33;6.20;;;;;;;23.70;56.04;98774.75;7002502;28;20275;-80
2023/08/24 04:35:30;;;;;;;7.27;6.03;;;;;;;23.50;56.67;98767.53;6989081;28;20221;-81
2023/08/24 04:38:52;;;;;;;8.13;7.33;;;;;;;23.17;56.53;98770.25;6975320;28;20660;-82
2023/08/24 04:42:13;;;;;;;7.03;6.27;;;;;;;23.30;57.44;98766.88;6973814;28;20316;-84
2023/08/24 04:45:35;;;;;;;7.23;6.53;;;;;;;22.76;58.22;98725.72;6972378;28;20663;-89
2023/08/24 04:48:57;;;;;;;7.20;6.60;;;;;;;23.11;58.24;98747.47;6983218;28;20292;-81
2023/08/24 04:52:19;;;;;;;8.27;6.70;;;;;;;23.37;57.61;98770.91;6949014;28;20299;-90
2023/08/24 04:55:41;;;;;;;7.67;6.70;;;;;;;23.52;57.12;98764.47;6966043;28;20289;-82
2023/08/24 04:59:02;;;;;;;7.33;6.73;;;;;;;22.94;58.22;98693.94;6949078;28;20246;-82
2023/08/24 05:02:24;;;;;;;7.70;7.00;;;;;;;23.14;58.34;98748.81;6967211;28;20255;-82
2023/08/24 05:05:48;;;;;;;7.60;5.97;;;;;;;23.51;57.57;98747.16;6985385;28;20330;-83
2023/08/24 05:09:09;;;;;;;10.30;6.30;;;;;;;23.45;57.20;98753.81;6991962;28;20203;-83
2023/08/24 05:12:33;;;;;;;7.00;6.30;;;;;;;23.47;57.15;98759.00;6974013;28;20386;-84
2023/08/24 05:15:55;;;;;;;8.80;6.33;;;;;;;23.28;58.38;98756.16;6971520;28;20365;-84
2023/08/24 05:19:16;;;;;;;6.53;6.03;;;;;;;23.34;57.83;98751.41;6973135;28;20338;-84
2023/08/24 05:22:39;;;;;;;6.57;5.97;;;;;;;23.53;57.96;98735.81;6972598;28;20293;-84
2023/08/24 05:26:03;;;;;;;8.83;5.40;;;;;;;23.82;57.01;98737.47;6971504;28;20723;-84
2023/08/24 05:29:24;;;;;;;7.27;5.80;;;;;;;23.52;57.68;98706.66;6973674;28;20292;-87
2023/08/24 05:32:48;;;;;;;6.80;6.07;;;;;;;23.78;57.23;98725.38;6973129;28;20705;-91
2023/08/24 05:36:10;;;;;;;7.07;6.47;;;;;;;23.91;56.59;98699.13;6998076;28;20211;-84
2023/08/24 05:39:33;;;;;;;8.27;6.80;;;;;;;23.26;57.18;98593.28;7003763;28;20214;-83
2023/08/24 05:42:54;;;;;;;6.77;5.83;;;;;;;23.87;56.76;98665.84;6975255;28;20261;-83
2023/08/24 05:46:16;;;;;;;7.97;5.93;;;;;;;24.51;55.20;98688.13;6976137;28;20205;-84
2023/08/24 05:49:38;;;;;;;6.30;4.83;;;;;;;24.94;53.05;98658.50;6973758;28;20210;-83
2023/08/24 05:52:59;;;;;;;7.07;5.10;;;;;;;25.35;52.05;98696.19;6974128;28;20229;-84
2023/08/24 05:56:23;;;;;;;6.90;5.67;;;;;;;25.29;52.36;98647.72;6974810;28;20225;-83
2023/08/24 05:59:44;;;;;;;5.40;5.00;;;;;;;24.91;52.72;98570.84;6953261;28;20197;-83
2023/08/24 06:03:06;;;;;;;6.43;5.63;;;;;;;25.60;53.02;98686.63;6983262;28;20724;-84
2023/08/24 06:06:27;;;;;;;7.63;5.63;;;;;;;25.43;53.57;98683.66;6963537;28;20721;-84
2023/08/24 06:09:49;;;;;;;8.63;5.40;;;;;;;25.70;53.55;98695.53;6950084;28;20219;-85
2023/08/24 06:13:12;;;;;;;7.50;5.43;;;;;;;25.78;53.14;98697.59;6945973;28;20311;-84
2023/08/24 06:16:33;;;;;;;10.83;5.50;;;;;;;25.99;53.11;98695.28;6957536;28;20308;-84
2023/08/24 06:19:55;;;;;;;9.23;5.23;;;;;;;26.16;51.99;98699.06;6971578;28;20295;-84
2023/08/24 06:23:17;;;;;;;6.50;5.30;;;;;;;26.46;51.34;98698.41;6971559;28;20589;-85
2023/08/24 06:26:38;;;;;;;8.07;5.10;;;;;;;26.63;50.58;98698.63;6971675;28;20341;-84
2023/08/24 06:30:01;;;;;;;7.03;4.67;;;;;;;26.61;49.98;98648.31;6955229;28;20214;-84
2023/08/24 06:33:29;;;;;;;6.30;4.80;;;;;;;26.98;49.52;98691.41;6971767;28;20370;-87
2023/08/24 06:36:51;;;;;;;6.03;5.43;;;;;;;26.97;49.89;98701.69;6970408;28;20646;-84
2023/08/24 06:40:14;;;;;;;6.53;5.03;;;;;;;27.18;49.24;98699.28;6993839;28;20289;-83
2023/08/24 06:43:37;;;;;;;5.70;4.80;;;;;;;26.98;48.14;98642.44;7003558;28;20232;-83
2023/08/24 06:47:00;;;;;;;8.00;4.77;;;;;;;26.81;48.67;98639.53;6998014;28;20567;-84
2023/08/24 06:50:22;;;;;;;6.40;5.23;;;;;;;26.94;48.25;98649.72;6997901;28;20213;-84
2023/08/24 06:53:43;;;;;;;7.60;5.27;;;;;;;26.56;49.26;98631.84;6998279;28;20268;-84
2023/08/24 06:57:06;;;;;;;5.77;5.13;;;;;;;26.94;50.31;98754.03;6987092;28;20583;-83
2023/08/24 07:00:28;;;;;;;6.40;4.90;;;;;;;25.99;51.34;98662.13;6970329;28;20240;-83
2023/08/24 07:03:51;;;;;;;10.73;4.90;;;;;;;27.31;49.44;98792.53;6970383;28;20598;-83
2023/08/24 07:07:12;;;;;;;6.40;5.20;;;;;;;27.13;48.73;98730.59;6962262;28;20207;-84
2023/08/24 07:10:34;;;;;;;6.80;5.23;;;;;;;26.85;48.70;98708.91;6994560;28;20210;-85
2023/08/24 07:13:56;;;;;;;8.63;5.70;;;;;;;27.35;48.79;98787.97;6967495;28;20221;-84
2023/08/24 07:17:18;;;;;;;5.67;5.13;;;;;;;27.77;48.09;98774.47;6980094;28;20777;-84
2023/08/24 07:20:40;;;;;;;5.93;5.40;;;;;;;27.90;47.58;98767.19;6988163;28;20197;-85
2023/08/24 07:24:02;;;;;;;7.33;5.70;;;;;;;27.61;47.68;98717.75;6948740;28;20650;-84
2023/08/24 07:27:24;;;;;;;8.63;5.90;;;;;;;27.96;48.77;98749.28;6962370;28;20203;-84
2023/08/24 07:30:45;;;;;;;10.63;5.47;;;;;;;28.25;46.70;98747.63;6971078;28;20333;-83
2023/08/24 07:34:07;;;;;;;5.47;4.97;;;;;;;28.66;45.34;98744.50;6979249;28;20222;-83
2023/08/24 07:37:29;;;;;;;9.80;5.50;;;;;;;27.78;46.01;98626.44;6970755;28;20297;-84
2023/08/24 07:40:51;;;;;;;5.27;4.77;;;;;;;28.61;45.39;98745.44;6971739;28;20228;-83
2023/08/24 07:44:12;;;;;;;7.30;5.27;;;;;;;28.58;45.43;98745.28;6970690;28;20270;-83
2023/08/24 07:47:34;;;;;;;9.07;5.57;;;;;;;28.67;45.13;98735.84;6970867;28;20653;-83
2023/08/24 07:50:56;;;;;;;7.10;5.20;;;;;;;28.26;45.59;98668.03;6972466;28;20222;-82
2023/08/24 07:54:20;;;;;;;7.97;5.50;;;;;;;28.54;45.66;98736.00;6985077;28;20704;-84
2023/08/24 07:57:41;;;;;;;7.07;5.60;;;;;;;29.07;45.21;98750.47;6972191;28;20207;-83
2023/08/24 08:01:03;;;;;;;6.73;5.40;;;;;;;29.42;44.25;98746.53;6971406;28;20257;-84
2023/08/24 08:04:24;;;;;;;7.70;5.03;;;;;;;29.57;43.46;98732.97;6973277;28;20241;-85
2023/08/24 08:07:46;;;;;;;5.53;5.00;;;;;;;29.65;43.46;98726.56;6969967;28;20629;-84
2023/08/24 08:11:09;;;;;;;7.17;4.67;;;;;;;30.10;42.72;98724.97;6968520;28;20287;-85
2023/08/24 08:14:30;;;;;;;8.00;4.60;;;;;;;30.52;41.39;98725.88;6968915;28;20229;-86
2023/08/24 08:17:52;;;;;;;6.83;4.93;;;;;;;30.52;41.20;98668.28;6968104;28;20339;-88
2023/08/24 08:21:17;;;;;;;6.57;4.43;;;;;;;30.48;42.14;98734.09;6962901;28;20290;-84
2023/08/24 08:24:39;;;;;;;6.87;4.33;;;;;;;31.76;39.76;98736.72;6969036;28;20279;-84
2023/08/24 08:28:02;;;;;;;9.80;5.10;;;;;;;30.39;39.44;98624.00;6972338;28;20227;-82
2023/08/24 08:31:24;;;;;;;6.60;4.73;;;;;;;31.39;40.74;98732.16;6972211;28;20790;-83
2023/08/24 08:34:45;;;;;;;5.60;4.80;;;;;;;32.34;38.61;98730.81;6979733;28;20366;-83
2023/08/24 08:38:08;;;;;;;8.20;4.90;;;;;;;32.43;36.63;98699.97;6981986;28;20206;-91
2023/08/24 08:41:33;;;;;;;8.43;4.70;;;;;;;32.93;36.16;98726.34;6961325;28;20221;-83
2023/08/24 08:44:56;;;;;;;6.07;3.97;;;;;;;33.23;35.60;98648.56;6986249;28;20252;-83
2023/08/24 08:48:19;;;;;;;5.37;4.50;;;;;;;33.86;34.52;98717.50;6987342;28;20236;-82
2023/08/24 08:51:40;;;;;;;6.80;4.23;;;;;;;33.39;35.96;98695.00;6983770;28;20199;-82
2023/08/24 08:55:06;;;;;;;5.80;4.43;;;;;;;33.48;36.20;98715.22;6976540;28;20372;-83
2023/08/24 08:58:28;;;;;;;6.53;4.30;;;;;;;33.63;35.54;98734.03;6967373;28;20205;-83
2023/08/24 09:01:52;;;;;;;6.60;4.20;;;;;;;33.70;35.03;98728.63;6973017;28;20229;-82
2023/08/24 09:05:14;;;;;;;5.17;3.60;;;;;;;33.63;34.29;98725.66;6974821;28;20241;-82
2023/08/24 09:08:35;;;;;;;9.13;4.20;;;;;;;33.95;34.32;98718.16;6980681;28;20206;-82
2023/08/24 09:11:58;;;;;;;9.57;4.20;;;;;;;34.09;33.16;98718.50;6972585;28;20269;-82
2023/08/24 09:15:25;;;;;;;5.40;4.00;;;;;;;34.07;33.55;98716.06;6976855;28;20306;-84
2023/08/24 09:18:48;;;;;;;5.63;4.57;;;;;;;34.25;33.60;98694.13;6973285;28;20199;-86
2023/08/24 09:22:10;;;;;;;8.87;4.20;;;;;;;34.49;33.35;98672.34;6973528;28;20195;-89
2023/08/24 09:25:31;;;;;;;5.93;4.00;;;;;;;34.54;33.92;98688.88;6987371;28;20223;-83
2023/08/24 09:28:53;;;;;;;5.13;4.20;;;;;;;35.93;31.41;98683.84;6988554;28;20265;-83
2023/08/24 09:32:14;;;;;;;5.97;4.00;;;;;;;34.26;33.68;98665.00;6978243;28;20238;-83
2023/08/24 09:35:38;;;;;;;8.43;4.40;;;;;;;35.17;32.79;98659.47;6976865;28;20325;-83
2023/08/24 09:39:00;;;;;;;7.83;4.70;;;;;;;34.97;32.55;98649.44;6977774;28;20293;-83
2023/08/24 09:42:25;;;;;;;6.47;4.30;;;;;;;35.11;32.88;98637.72;6977537;28;20289;-84
2023/08/24 09:45:51;;;;;;;6.67;4.33;;;;;;;34.94;33.15;98636.16;6962690;28;20211;-83
2023/08/24 09:49:13;;;;;;;4.83;3.73;;;;;;;35.76;32.27;98642.22;6950390;28;20710;-84
2023/08/24 09:52:36;;;;;;;5.67;4.20;;;;;;;35.71;32.83;98626.53;6947975;28;20258;-84
2023/08/24 09:56:00;;;;;;;7.13;3.93;;;;;;;35.70;32.56;98626.88;6964211;28;20610;-84
2023/08/24 09:59:24;;;;;;;6.47;4.40;;;;;;;34.25;34.80;98605.34;6975505;28;20340;-84
2023/08/24 10:02:50;;;;;;;7.13;4.70;;;;;;;35.33;34.52;98592.13;6970318;28;20730;-81
2023/08/24 10:06:13;;;;;;;6.47;4.30;;;;;;;34.39;35.35;98583.31;6975955;28;20290;-84
2023/08/24 10:09:42;;;;;;;6.63;4.20;;;;;;;35.16;33.74;98581.34;6973255;28;20210;-84
2023/08/24 10:13:08;;;;;;;5.13;4.27;;;;;;;35.53;34.54;98565.63;6959574;28;20222;-84
2023/08/24 10:16:30;;;;;;;5.77;4.27;;;;;;;35.75;33.45;98557.25;6972092;28;20199;-84
2023/08/24 10:19:52;;;;;;;6.97;4.23;;;;;;;35.71;33.29;98556.38;6969623;28;20211;-84
2023/08/24 10:23:16;;;;;;;4.43;4.03;;;;;;;35.28;34.02;98547.56;6965452;28;20717;-84
2023/08/24 10:26:40;;;;;;;4.80;4.40;;;;;;;35.74;33.87;98532.38;6972595;28;20206;-87
2023/08/24 10:30:02;;;;;;;4.33;3.93;;;;;;;34.91;34.96;98540.81;6978137;28;20283;-84
2023/08/24 10:33:24;;;;;;;5.30;4.80;;;;;;;35.23;34.47;98539.44;6976010;28;20246;-85
2023/08/24 10:36:48;;;;;;;6.90;5.17;;;;;;;35.81;34.17;98535.28;6966323;28;20253;-84
2023/08/24 10:40:11;;;;;;;4.93;4.43;;;;;;;36.84;32.35;98533.59;6966079;28;20269;-85
2023/08/24 10:43:36;;;;;;;5.77;3.90;;;;;;;36.54;33.09;98527.97;6967114;28;20731;-85
2023/08/24 10:47:18;;;;;;;5.10;4.40;;;;;;;36.16;33.33;98513.38;6954478;28;20268;-85
2023/08/24 10:50:40;;;;;;;6.03;4.33;;;;;;;36.83;32.27;98462.50;6975668;28;20245;-86
2023/08/24 10:54:04;;;;;;;5.37;4.40;;;;;;;36.50;33.57;98518.66;6975714;28;20578;-85
2023/08/24 10:57:28;;;;;;;5.97;4.43;;;;;;;37.97;31.53;98506.16;6977480;28;20202;-86
2023/08/24 11:00:51;;;;;;;7.33;4.70;;;;;;;37.98;30.59;98484.47;6976869;28;20209;-84
2023/08/24 11:04:13;;;;;;;5.27;4.77;;;;;;;35.32;35.64;98484.75;6973344;28;20258;-85
2023/08/24 11:07:34;;;;;;;5.73;4.67;;;;;;;35.10;35.93;98463.13;6950132;28;20217;-86
2023/08/24 11:10:56;;;;;;;5.10;4.20;;;;;;;34.60;36.87;98460.53;6966642;28;20325;-84
2023/08/24 11:14:25;;;;;;;5.30;4.50;;;;;;;35.78;35.22;98466.69;6974502;28;20218;-85
2023/08/24 11:18:15;;;;;;;5.03;4.37;;;;;;;35.58;35.51;98470.78;6978954;28;20201;-86
2023/08/24 11:21:37;;;;;;;4.67;4.27;;;;;;;35.18;35.88;98461.22;6981406;28;20206;-86
2023/08/24 11:24:58;;;;;;;5.97;4.70;;;;;;;35.29;35.87;98449.06;6983551;28;20230;-85
2023/08/24 11:28:21;;;;;;;5.97;4.97;;;;;;;36.00;34.55;98454.59;6983971;28;20210;-84
2023/08/24 11:31:44;;;;;;;5.30;4.40;;;;;;;36.17;34.69;98439.19;6975859;28;20230;-84
2023/08/24 11:35:11;;;;;;;7.47;4.73;;;;;;;36.12;34.57;98443.13;6977471;28;20272;-85
2023/08/24 11:38:38;;;;;;;6.50;4.80;;;;;;;35.43;35.30;98379.16;6977110;28;20194;-85
2023/08/24 11:42:01;;;;;;;6.00;4.60;;;;;;;36.18;34.42;98384.66;6974356;28;20448;-85
2023/08/24 11:45:32;;;;;;;10.27;4.50;;;;;;;36.44;33.69;98419.06;6966459;28;20325;-88
2023/08/24 11:48:54;;;;;;;7.17;4.60;;;;;;;35.99;34.66;98419.28;6969854;28;20260;-86
2023/08/24 11:52:18;;;;;;;6.13;4.97;;;;;;;36.32;34.47;98405.28;6970870;28;20202;-86
2023/08/24 11:55:41;;;;;;;6.40;4.50;;;;;;;37.28;32.66;98383.44;6971157;28;20766;-84
2023/08/24 11:59:03;;;;;;;7.50;4.73;;;;;;;36.04;34.84;98407.75;6970443;28;20199;-83
2023/08/24 12:02:24;;;;;;;6.60;4.40;;;;;;;37.89;32.52;98389.06;6972438;28;20250;-84
2023/08/24 12:05:46;;;;;;;6.80;4.73;;;;;;;38.12;32.02;98397.25;6972592;28;20381;-84
2023/08/24 12:09:09;;;;;;;8.00;4.73;;;;;;;37.39;32.99;98398.38;6977990;28;20342;-83
2023/08/24 12:12:30;;;;;;;8.93;4.33;;;;;;;37.70;32.09;98405.44;6979370;28;20230;-83
2023/08/24 12:15:54;;;;;;;7.60;4.60;;;;;;;37.18;32.58;98395.41;6978906;28;20202;-83
2023/08/24 12:19:16;;;;;;;5.97;4.50;;;;;;;37.91;32.53;98394.31;6979007;28;20217;-83
2023/08/24 12:22:37;;;;;;;5.23;4.50;;;;;;;36.76;33.66;98388.53;6978554;28;20225;-82
2023/08/24 12:26:01;;;;;;;5.10;4.53;;;;;;;37.96;31.62;98375.03;6951656;28;20225;-83
2023/08/24 12:29:23;;;;;;;6.10;4.47;;;;;;;37.30;33.47;98336.03;6949937;28;20210;-83
2023/08/24 12:32:46;;;;;;;6.53;4.70;;;;;;;37.60;32.07;98347.91;6950703;28;20235;-83
2023/08/24 12:36:07;;;;;;;6.77;4.43;;;;;;;36.46;33.58;98352.09;6962169;28;20571;-84
2023/08/24 12:39:29;;;;;;;5.60;4.80;;;;;;;36.85;31.95;98195.91;6995073;28;20666;-84
2023/08/24 12:42:52;;;;;;;5.07;4.47;;;;;;;37.92;31.58;98332.00;7005633;28;20255;-84
2023/08/24 12:46:13;;;;;;;5.67;4.87;;;;;;;37.74;31.95;98331.09;7005699;28;20607;-85
2023/08/24 12:49:35;;;;;;;6.43;4.50;;;;;;;36.93;33.08;98303.56;6984313;28;20237;-83
2023/08/24 12:52:59;;;;;;;8.87;4.60;;;;;;;37.73;31.35;98306.94;6979339;28;20613;-83
2023/08/24 12:56:21;;;;;;;6.27;4.40;;;;;;;37.95;31.61;98279.72;6978073;28;20671;-83
2023/08/24 12:59:54;;;;;;;5.27;4.17;;;;;;;39.35;29.59;98288.34;6972291;28;20294;-83
2023/08/24 13:03:16;;;;;;;10.60;5.27;;;;;;;38.56;29.25;98240.81;6949951;28;20626;-83
2023/08/24 13:06:37;;;;;;;7.57;4.60;;;;;;;39.24;29.54;98288.34;6950608;28;20202;-83
2023/08/24 13:09:59;;;;;;;6.27;4.13;;;;;;;39.69;28.21;98284.63;6970121;28;20548;-83
2023/08/24 13:13:20;;;;;;;7.03;4.77;;;;;;;39.78;26.76;98267.28;6978836;28;20233;-83
2023/08/24 13:16:43;;;;;;;8.15;4.70;;;;;;;39.04;27.67;98273.06;6978573;28;20206;-83
2023/08/24 13:20:07;;;;;;;9.02;5.10;;;;;;;40.61;26.18;98262.38;6958874;28;20207;-83
2023/08/24 13:23:29;;;;;;;6.45;4.47;;;;;;;40.53;26.34;98263.59;6968391;28;20288;-83
2023/08/24 13:26:50;;;;;;;6.70;4.25;;;;;;;40.77;26.51;98256.97;6985434;28;20232;-85
2023/08/24 13:30:12;;;;;;;7.20;4.53;;;;;;;40.99;27.22;98255.59;7000926;28;20275;-84
2023/08/24 13:33:35;;;;;;;7.35;4.45;;;;;;;41.03;26.07;98234.53;6978393;28;20269;-84
2023/08/24 13:36:57;;;;;;;13.63;4.97;;;;;;;41.40;25.05;98223.25;6975688;28;20253;-84
2023/08/24 13:40:19;;;;;;;6.55;4.40;;;;;;;41.35;24.98;98235.00;6975956;28;20230;-84
2023/08/24 13:43:41;;;;;;;6.75;4.70;;;;;;;41.32;24.37;98215.22;6975248;28;20230;-84
2023/08/24 13:47:04;;;;;;;8.13;4.30;;;;;;;41.41;25.35;98207.06;6975900;28;20210;-84
2023/08/24 13:50:27;;;;;;;8.60;4.95;;;;;;;41.00;25.40;98183.66;6977134;28;20195;-86
2023/08/24 13:53:48;;;;;;;6.75;4.50;;;;;;;41.38;25.47;98186.06;6975891;28;20311;-84
2023/08/24 13:57:10;;;;;;;7.93;4.95;;;;;;;40.65;25.37;98181.13;6976071;28;20251;-87
2023/08/24 14:00:31;;;;;;;6.65;4.45;;;;;;;41.23;24.51;98192.28;6978089;28;20304;-84
2023/08/24 14:03:53;;;;;;;7.72;4.93;;;;;;;39.81;25.93;98187.38;6977253;28;20308;-84
2023/08/24 14:07:16;;;;;;;8.43;4.32;;;;;;;40.35;25.87;98186.63;6972694;28;20215;-84
2023/08/24 14:10:37;;;;;;;11.27;4.93;;;;;;;40.88;25.28;98196.28;6975376;28;20332;-84
2023/08/24 14:13:59;;;;;;;7.45;4.43;;;;;;;41.05;25.33;98188.84;6975673;28;20764;-84
2023/08/24 14:17:20;;;;;;;9.25;5.00;;;;;;;40.93;25.89;98198.66;6965848;28;20291;-84
2023/08/24 14:20:42;;;;;;;12.10;4.53;;;;;;;40.35;26.14;98193.09;6973750;28;20245;-84
2023/08/24 14:24:05;;;;;;;7.38;4.20;;;;;;;41.00;24.18;98183.66;6971784;28;20258;-84
2023/08/24 14:27:27;;;;;;;8.40;4.53;;;;;;;40.58;24.90;98186.88;6974441;28;20240;-84
2023/08/24 14:30:48;;;;;;;10.32;4.53;;;;;;;40.37;25.49;98172.91;6975481;28;20680;-84
2023/08/24 14:34:10;;;;;;;10.73;4.35;;;;;;;40.63;25.88;98190.06;6977603;28;20250;-84
2023/08/24 14:37:33;;;;;;;12.15;4.65;;;;;;;40.36;25.28;98189.03;6973238;28;20242;-83
2023/08/24 14:40:56;;;;;;;8.57;4.38;;;;;;;40.17;25.49;98175.47;6978387;28;20206;-84
2023/08/24 14:44:17;;;;;;;9.80;4.85;;;;;;;40.23;25.91;98187.94;6982232;28;20238;-85
2023/08/24 14:47:39;;;;;;;9.60;4.30;;;;;;;40.11;25.22;98194.06;6981637;28;20210;-83
2023/08/24 14:51:01;;;;;;;8.63;4.53;;;;;;;40.05;25.75;98189.25;6980909;28;20214;-84
2023/08/24 14:54:23;;;;;;;8.77;4.47;;;;;;;39.98;25.91;98180.81;6982249;28;20691;-83
2023/08/24 14:57:46;;;;;;;10.37;4.47;;;;;;;39.44;26.38;98206.91;6981018;28;20210;-83
2023/08/24 15:01:07;;;;;;;10.00;5.03;;;;;;;39.72;27.59;98235.03;6981834;28;20486;-84
2023/08/24 15:04:29;;;;;;;8.60;4.70;;;;;;;39.37;29.74;98173.06;6981511;28;20443;-83
2023/08/24 15:07:51;;;;;;;11.00;5.27;;;;;;;38.86;30.79;98172.78;6978573;28;20198;-82
2023/08/24 15:11:19;;;;;;;12.33;5.20;;;;;;;38.23;31.06;98251.63;6972878;28;20289;-83
2023/08/24 15:14:57;;;;;;;12.83;5.10;;;;;;;38.02;29.87;98390.38;6974429;28;20371;-84
2023/08/24 15:18:19;;;;;;;16.27;5.27;;;;;;;34.65;37.87;98367.78;6972114;28;20605;-83
2023/08/24 15:21:48;;;;;;;18.87;4.90;;;;;;;32.11;45.36;98424.66;6972447;28;20210;-83
2023/08/24 15:25:10;;;;;;;13.20;4.50;;;;;;;30.97;48.06;98409.44;6973681;28;20709;-88
2023/08/24 15:28:37;;;;;;;14.37;4.20;;;;;;;31.37;46.51;98455.78;6973424;28;20911;-83
2023/08/24 15:32:00;;;;;;;5.83;4.10;;;;;;;30.78;46.75;98471.22;6975132;28;20187;-83
2023/08/24 15:35:21;;;;;;;9.20;4.47;;;;;;;29.46;46.83;98266.84;6974687;28;20230;-83
2023/08/24 15:38:43;;;;;;;6.93;4.23;;;;;;;29.24;50.38;98356.88;6974744;28;20242;-84
2023/08/24 15:42:05;;;;;;;8.67;3.70;;;;;;;28.83;49.35;98279.03;6979305;28;20817;-83
2023/08/24 15:45:28;;;;;;;6.57;4.23;;;;;;;29.51;51.55;98361.91;6979618;28;20230;-83
2023/08/24 15:48:55;;;;;;;6.53;3.90;;;;;;;29.54;49.32;98355.69;6978598;28;20206;-83
2023/08/24 15:52:17;;;;;;;4.63;3.20;;;;;;;30.09;48.76;98347.03;6958235;28;20199;-82